sensor_id;sensor_type;location;lat;lon;timestamp;P1;durP1;ratioP1;P2;durP2;ratioP2
26963;SDS011;14521;48.148;-1.656;2022-12-07T00:02:58;3.40;;;3.10;;
26963;SDS011;14521;48.148;-1.656;2022-12-07T00:06:21;3.55;;;3.25;;
26963;SDS011;14521;48.148;-1.656;2022-12-07T00:09:43;3.85;;;3.38;;
26963;SDS011;14521;48.148;-1.656;2022-12-07T00:13:05;3.80;;;3.50;;
26963;SDS011;14521;48.148;-1.656;2022-12-07T00:16:29;3.28;;;3.08;;
26963;SDS011;14521;48.148;-1.656;2022-12-07T00:19:52;4.03;;;2.90;;
26963;SDS011;14521;48.148;-1.656;2022-12-07T00:23:15;3.08;;;2.88;;
26963;SDS011;14521;48.148;-1.656;2022-12-07T00:26:37;4.15;;;3.55;;
26963;SDS011;14521;48.148;-1.656;2022-12-07T00:30:01;3.10;;;2.90;;
26963;SDS011;14521;48.148;-1.656;2022-12-07T00:33:24;3.10;;;2.90;;
26963;SDS011;14521;48.148;-1.656;2022-12-07T00:36:47;3.38;;;3.17;;
26963;SDS011;14521;48.148;-1.656;2022-12-07T00:40:10;3.40;;;3.10;;
26963;SDS011;14521;48.148;-1.656;2022-12-07T00:43:33;3.42;;;3.17;;
26963;SDS011;14521;48.148;-1.656;2022-12-07T00:46:55;3.10;;;2.90;;
26963;SDS011;14521;48.148;-1.656;2022-12-07T00:50:18;3.40;;;3.10;;
26963;SDS011;14521;48.148;-1.656;2022-12-07T00:53:40;3.30;;;3.00;;
26963;SDS011;14521;48.148;-1.656;2022-12-07T00:57:03;3.00;;;2.80;;
26963;SDS011;14521;48.148;-1.656;2022-12-07T01:00:25;3.50;;;3.20;;
26963;SDS011;14521;48.148;-1.656;2022-12-07T01:03:47;3.30;;;3.00;;
26963;SDS011;14521;48.148;-1.656;2022-12-07T01:07:10;2.88;;;2.67;;
26963;SDS011;14521;48.148;-1.656;2022-12-07T01:10:32;3.45;;;2.97;;
26963;SDS011;14521;48.148;-1.656;2022-12-07T01:13:55;2.92;;;2.63;;
26963;SDS011;14521;48.148;-1.656;2022-12-07T01:17:18;3.30;;;3.00;;
26963;SDS011;14521;48.148;-1.656;2022-12-07T01:20:41;3.30;;;3.10;;
26963;SDS011;14521;48.148;-1.656;2022-12-07T01:24:04;3.00;;;2.80;;
26963;SDS011;14521;48.148;-1.656;2022-12-07T01:27:28;2.72;;;2.53;;
26963;SDS011;14521;48.148;-1.656;2022-12-07T01:31:00;2.92;;;2.72;;
26963;SDS011;14521;48.148;-1.656;2022-12-07T01:34:33;3.38;;;3.08;;
26963;SDS011;14521;48.148;-1.656;2022-12-07T01:37:55;2.95;;;2.53;;
26963;SDS011;14521;48.148;-1.656;2022-12-07T01:41:17;2.88;;;2.67;;
26963;SDS011;14521;48.148;-1.656;2022-12-07T01:48:40;2.95;;;2.75;;
26963;SDS011;14521;48.148;-1.656;2022-12-07T01:52:10;3.00;;;2.80;;
26963;SDS011;14521;48.148;-1.656;2022-12-07T01:55:45;2.85;;;2.30;;
26963;SDS011;14521;48.148;-1.656;2022-12-07T01:59:11;2.95;;;2.75;;
26963;SDS011;14521;48.148;-1.656;2022-12-07T02:02:36;3.03;;;2.75;;
26963;SDS011;14521;48.148;-1.656;2022-12-07T02:06:04;3.20;;;3.00;;
26963;SDS011;14521;48.148;-1.656;2022-12-07T02:09:28;2.95;;;2.75;;
26963;SDS011;14521;48.148;-1.656;2022-12-07T02:28:25;2.70;;;2.50;;
26963;SDS011;14521;48.148;-1.656;2022-12-07T02:32:11;2.97;;;2.65;;
26963;SDS011;14521;48.148;-1.656;2022-12-07T02:39:07;2.95;;;2.75;;
26963;SDS011;14521;48.148;-1.656;2022-12-07T02:42:38;2.88;;;2.67;;
26963;SDS011;14521;48.148;-1.656;2022-12-07T02:46:16;2.90;;;2.60;;
26963;SDS011;14521;48.148;-1.656;2022-12-07T02:49:43;3.45;;;3.13;;
26963;SDS011;14521;48.148;-1.656;2022-12-07T02:53:27;2.88;;;2.67;;
26963;SDS011;14521;48.148;-1.656;2022-12-07T03:00:28;2.75;;;2.55;;
26963;SDS011;14521;48.148;-1.656;2022-12-07T03:04:11;3.00;;;2.80;;
26963;SDS011;14521;48.148;-1.656;2022-12-07T03:11:08;2.75;;;2.60;;
26963;SDS011;14521;48.148;-1.656;2022-12-07T03:14:46;2.15;;;2.05;;
26963;SDS011;14521;48.148;-1.656;2022-12-07T03:18:33;3.17;;;2.97;;
26963;SDS011;14521;48.148;-1.656;2022-12-07T03:22:01;2.75;;;2.55;;
26963;SDS011;14521;48.148;-1.656;2022-12-07T03:25:27;2.92;;;2.72;;
26963;SDS011;14521;48.148;-1.656;2022-12-07T03:28:52;3.22;;;3.03;;
26963;SDS011;14521;48.148;-1.656;2022-12-07T03:36:15;4.13;;;3.67;;
26963;SDS011;14521;48.148;-1.656;2022-12-07T03:39:49;3.45;;;2.85;;
26963;SDS011;14521;48.148;-1.656;2022-12-07T03:43:23;3.58;;;3.00;;
26963;SDS011;14521;48.148;-1.656;2022-12-07T03:47:20;3.45;;;3.25;;
26963;SDS011;14521;48.148;-1.656;2022-12-07T03:50:53;2.92;;;2.72;;
26963;SDS011;14521;48.148;-1.656;2022-12-07T03:57:50;3.22;;;3.00;;
26963;SDS011;14521;48.148;-1.656;2022-12-07T04:01:15;3.33;;;2.90;;
26963;SDS011;14521;48.148;-1.656;2022-12-07T04:04:39;2.80;;;2.60;;
26963;SDS011;14521;48.148;-1.656;2022-12-07T04:08:03;4.38;;;2.65;;
26963;SDS011;14521;48.148;-1.656;2022-12-07T04:11:25;5.25;;;2.90;;
26963;SDS011;14521;48.148;-1.656;2022-12-07T04:14:48;3.03;;;2.83;;
26963;SDS011;14521;48.148;-1.656;2022-12-07T04:18:10;5.75;;;2.88;;
26963;SDS011;14521;48.148;-1.656;2022-12-07T04:21:33;4.30;;;3.17;;
26963;SDS011;14521;48.148;-1.656;2022-12-07T04:24:56;3.03;;;2.83;;
26963;SDS011;14521;48.148;-1.656;2022-12-07T04:28:18;2.92;;;2.70;;
26963;SDS011;14521;48.148;-1.656;2022-12-07T04:31:41;3.17;;;2.97;;
26963;SDS011;14521;48.148;-1.656;2022-12-07T04:35:03;3.28;;;2.97;;
26963;SDS011;14521;48.148;-1.656;2022-12-07T04:38:26;3.35;;;3.13;;
26963;SDS011;14521;48.148;-1.656;2022-12-07T04:41:49;3.38;;;3.08;;
26963;SDS011;14521;48.148;-1.656;2022-12-07T04:45:11;3.83;;;2.63;;
26963;SDS011;14521;48.148;-1.656;2022-12-07T04:48:34;2.83;;;2.63;;
26963;SDS011;14521;48.148;-1.656;2022-12-07T04:51:56;2.90;;;2.70;;
26963;SDS011;14521;48.148;-1.656;2022-12-07T04:55:18;3.00;;;2.80;;
26963;SDS011;14521;48.148;-1.656;2022-12-07T04:58:41;3.88;;;2.80;;
26963;SDS011;14521;48.148;-1.656;2022-12-07T05:02:04;3.20;;;3.00;;
26963;SDS011;14521;48.148;-1.656;2022-12-07T05:05:26;3.47;;;2.92;;
26963;SDS011;14521;48.148;-1.656;2022-12-07T05:08:48;3.17;;;2.97;;
26963;SDS011;14521;48.148;-1.656;2022-12-07T05:12:11;2.50;;;2.40;;
26963;SDS011;14521;48.148;-1.656;2022-12-07T05:15:33;2.55;;;2.28;;
26963;SDS011;14521;48.148;-1.656;2022-12-07T05:18:55;2.58;;;2.38;;
26963;SDS011;14521;48.148;-1.656;2022-12-07T05:22:18;2.58;;;2.38;;
26963;SDS011;14521;48.148;-1.656;2022-12-07T05:25:40;2.20;;;2.10;;
26963;SDS011;14521;48.148;-1.656;2022-12-07T05:29:03;2.40;;;2.20;;
26963;SDS011;14521;48.148;-1.656;2022-12-07T05:32:25;2.33;;;2.22;;
26963;SDS011;14521;48.148;-1.656;2022-12-07T05:35:48;2.30;;;2.20;;
26963;SDS011;14521;48.148;-1.656;2022-12-07T05:39:10;3.03;;;2.25;;
26963;SDS011;14521;48.148;-1.656;2022-12-07T05:42:32;1.92;;;1.83;;
26963;SDS011;14521;48.148;-1.656;2022-12-07T05:45:55;2.33;;;2.22;;
26963;SDS011;14521;48.148;-1.656;2022-12-07T05:49:17;2.28;;;2.08;;
26963;SDS011;14521;48.148;-1.656;2022-12-07T05:52:40;2.00;;;1.90;;
26963;SDS011;14521;48.148;-1.656;2022-12-07T05:56:02;1.92;;;1.60;;
26963;SDS011;14521;48.148;-1.656;2022-12-07T05:59:24;1.95;;;1.85;;
26963;SDS011;14521;48.148;-1.656;2022-12-07T06:02:49;1.87;;;1.77;;
26963;SDS011;14521;48.148;-1.656;2022-12-07T06:06:11;2.00;;;1.90;;
26963;SDS011;14521;48.148;-1.656;2022-12-07T06:09:34;2.10;;;1.90;;
26963;SDS011;14521;48.148;-1.656;2022-12-07T06:12:56;1.73;;;1.63;;
26963;SDS011;14521;48.148;-1.656;2022-12-07T06:16:19;1.70;;;1.60;;
26963;SDS011;14521;48.148;-1.656;2022-12-07T06:19:41;1.90;;;1.80;;
26963;SDS011;14521;48.148;-1.656;2022-12-07T06:23:04;1.80;;;1.70;;
26963;SDS011;14521;48.148;-1.656;2022-12-07T06:26:26;2.00;;;1.90;;
26963;SDS011;14521;48.148;-1.656;2022-12-07T06:29:49;1.85;;;1.75;;
26963;SDS011;14521;48.148;-1.656;2022-12-07T06:33:11;1.90;;;1.70;;
26963;SDS011;14521;48.148;-1.656;2022-12-07T06:36:34;4.57;;;1.80;;
26963;SDS011;14521;48.148;-1.656;2022-12-07T06:39:56;2.13;;;2.03;;
26963;SDS011;14521;48.148;-1.656;2022-12-07T06:43:18;5.50;;;1.83;;
26963;SDS011;14521;48.148;-1.656;2022-12-07T06:46:41;1.80;;;1.70;;
26963;SDS011;14521;48.148;-1.656;2022-12-07T06:50:03;1.95;;;1.85;;
26963;SDS011;14521;48.148;-1.656;2022-12-07T06:53:27;1.90;;;1.80;;
26963;SDS011;14521;48.148;-1.656;2022-12-07T06:56:50;1.63;;;1.52;;
26963;SDS011;14521;48.148;-1.656;2022-12-07T07:00:12;1.85;;;1.75;;
26963;SDS011;14521;48.148;-1.656;2022-12-07T07:03:42;2.60;;;1.88;;
26963;SDS011;14521;48.148;-1.656;2022-12-07T07:07:06;2.58;;;1.70;;
26963;SDS011;14521;48.148;-1.656;2022-12-07T07:10:28;5.05;;;1.70;;
26963;SDS011;14521;48.148;-1.656;2022-12-07T07:13:50;1.42;;;1.33;;
26963;SDS011;14521;48.148;-1.656;2022-12-07T07:17:13;5.15;;;1.67;;
26963;SDS011;14521;48.148;-1.656;2022-12-07T07:20:36;1.40;;;1.30;;
26963;SDS011;14521;48.148;-1.656;2022-12-07T07:23:58;1.67;;;1.58;;
26963;SDS011;14521;48.148;-1.656;2022-12-07T07:27:20;2.03;;;1.40;;
26963;SDS011;14521;48.148;-1.656;2022-12-07T07:30:43;2.63;;;1.50;;
26963;SDS011;14521;48.148;-1.656;2022-12-07T07:34:06;4.38;;;1.40;;
26963;SDS011;14521;48.148;-1.656;2022-12-07T07:37:28;1.60;;;1.50;;
26963;SDS011;14521;48.148;-1.656;2022-12-07T07:40:50;2.17;;;1.98;;
26963;SDS011;14521;48.148;-1.656;2022-12-07T07:44:13;1.67;;;1.58;;
26963;SDS011;14521;48.148;-1.656;2022-12-07T07:47:35;2.90;;;1.67;;
26963;SDS011;14521;48.148;-1.656;2022-12-07T07:50:57;1.80;;;1.65;;
26963;SDS011;14521;48.148;-1.656;2022-12-07T07:54:20;1.50;;;1.40;;
26963;SDS011;14521;48.148;-1.656;2022-12-07T07:57:42;1.55;;;1.45;;
26963;SDS011;14521;48.148;-1.656;2022-12-07T08:01:10;2.38;;;1.25;;
26963;SDS011;14521;48.148;-1.656;2022-12-07T08:04:32;1.50;;;1.40;;
26963;SDS011;14521;48.148;-1.656;2022-12-07T08:07:55;2.67;;;1.42;;
26963;SDS011;14521;48.148;-1.656;2022-12-07T08:11:18;1.60;;;1.50;;
26963;SDS011;14521;48.148;-1.656;2022-12-07T08:14:41;1.60;;;1.50;;
26963;SDS011;14521;48.148;-1.656;2022-12-07T08:18:03;2.05;;;1.58;;
26963;SDS011;14521;48.148;-1.656;2022-12-07T08:21:26;1.38;;;1.30;;
26963;SDS011;14521;48.148;-1.656;2022-12-07T08:24:48;1.10;;;1.10;;
26963;SDS011;14521;48.148;-1.656;2022-12-07T08:28:11;1.60;;;1.48;;
26963;SDS011;14521;48.148;-1.656;2022-12-07T08:31:35;1.48;;;1.38;;
26963;SDS011;14521;48.148;-1.656;2022-12-07T08:34:58;1.40;;;1.30;;
26963;SDS011;14521;48.148;-1.656;2022-12-07T08:38:20;1.40;;;1.30;;
26963;SDS011;14521;48.148;-1.656;2022-12-07T08:41:45;1.52;;;1.42;;
26963;SDS011;14521;48.148;-1.656;2022-12-07T08:45:11;2.47;;;1.40;;
26963;SDS011;14521;48.148;-1.656;2022-12-07T08:48:37;1.40;;;1.30;;
26963;SDS011;14521;48.148;-1.656;2022-12-07T08:52:04;1.50;;;1.17;;
26963;SDS011;14521;48.148;-1.656;2022-12-07T08:55:27;1.83;;;1.58;;
26963;SDS011;14521;48.148;-1.656;2022-12-07T08:58:50;1.30;;;1.23;;
26963;SDS011;14521;48.148;-1.656;2022-12-07T09:02:13;1.55;;;1.45;;
26963;SDS011;14521;48.148;-1.656;2022-12-07T09:05:36;1.83;;;1.70;;
26963;SDS011;14521;48.148;-1.656;2022-12-07T09:08:58;2.97;;;1.48;;
26963;SDS011;14521;48.148;-1.656;2022-12-07T09:12:23;1.65;;;1.55;;
26963;SDS011;14521;48.148;-1.656;2022-12-07T09:15:45;4.07;;;1.38;;
26963;SDS011;14521;48.148;-1.656;2022-12-07T09:19:07;1.48;;;1.38;;
26963;SDS011;14521;48.148;-1.656;2022-12-07T09:22:30;1.63;;;1.20;;
26963;SDS011;14521;48.148;-1.656;2022-12-07T09:25:53;1.63;;;1.52;;
26963;SDS011;14521;48.148;-1.656;2022-12-07T09:29:15;1.33;;;1.23;;
26963;SDS011;14521;48.148;-1.656;2022-12-07T09:32:37;1.08;;;1.08;;
26963;SDS011;14521;48.148;-1.656;2022-12-07T09:36:01;2.88;;;1.00;;
26963;SDS011;14521;48.148;-1.656;2022-12-07T09:39:25;1.40;;;1.30;;
26963;SDS011;14521;48.148;-1.656;2022-12-07T09:42:49;1.25;;;1.15;;
26963;SDS011;14521;48.148;-1.656;2022-12-07T09:46:16;1.63;;;1.20;;
26963;SDS011;14521;48.148;-1.656;2022-12-07T09:49:41;1.30;;;1.20;;
26963;SDS011;14521;48.148;-1.656;2022-12-07T09:53:07;1.40;;;1.30;;
26963;SDS011;14521;48.148;-1.656;2022-12-07T09:56:35;1.95;;;1.20;;
26963;SDS011;14521;48.148;-1.656;2022-12-07T10:00:00;1.30;;;1.20;;
26963;SDS011;14521;48.148;-1.656;2022-12-07T10:03:28;1.60;;;1.50;;
26963;SDS011;14521;48.148;-1.656;2022-12-07T10:06:51;2.67;;;1.10;;
26963;SDS011;14521;48.148;-1.656;2022-12-07T10:10:23;1.70;;;1.60;;
26963;SDS011;14521;48.148;-1.656;2022-12-07T10:13:49;1.53;;;1.10;;
26963;SDS011;14521;48.148;-1.656;2022-12-07T10:17:29;1.63;;;1.30;;
26963;SDS011;14521;48.148;-1.656;2022-12-07T10:24:34;1.70;;;1.42;;
26963;SDS011;14521;48.148;-1.656;2022-12-07T10:31:33;1.92;;;1.30;;
26963;SDS011;14521;48.148;-1.656;2022-12-07T10:35:18;1.27;;;1.27;;
26963;SDS011;14521;48.148;-1.656;2022-12-07T10:38:53;6.82;;;1.67;;
26963;SDS011;14521;48.148;-1.656;2022-12-07T10:42:32;1.45;;;1.35;;
26963;SDS011;14521;48.148;-1.656;2022-12-07T10:46:18;1.92;;;1.48;;
26963;SDS011;14521;48.148;-1.656;2022-12-07T10:50:02;3.28;;;1.30;;
26963;SDS011;14521;48.148;-1.656;2022-12-07T11:01:32;1.55;;;1.30;;
26963;SDS011;14521;48.148;-1.656;2022-12-07T11:27:36;44.35;;;9.68;;
26963;SDS011;14521;48.148;-1.656;2022-12-07T11:31:18;55.20;;;9.32;;
26963;SDS011;14521;48.148;-1.656;2022-12-07T11:38:42;47.13;;;8.95;;
26963;SDS011;14521;48.148;-1.656;2022-12-07T11:42:25;46.83;;;9.30;;
26963;SDS011;14521;48.148;-1.656;2022-12-07T11:45:58;42.10;;;8.37;;
26963;SDS011;14521;48.148;-1.656;2022-12-07T11:53:37;37.85;;;7.78;;
26963;SDS011;14521;48.148;-1.656;2022-12-07T11:57:07;31.52;;;7.00;;
26963;SDS011;14521;48.148;-1.656;2022-12-07T12:00:41;28.58;;;7.72;;
26963;SDS011;14521;48.148;-1.656;2022-12-07T12:07:32;26.92;;;6.90;;
26963;SDS011;14521;48.148;-1.656;2022-12-07T12:11:24;28.25;;;6.55;;
26963;SDS011;14521;48.148;-1.656;2022-12-07T12:22:15;24.38;;;5.80;;
26963;SDS011;14521;48.148;-1.656;2022-12-07T12:25:52;21.08;;;5.28;;
26963;SDS011;14521;48.148;-1.656;2022-12-07T12:29:23;21.33;;;6.07;;
26963;SDS011;14521;48.148;-1.656;2022-12-07T12:33:04;19.60;;;6.30;;
26963;SDS011;14521;48.148;-1.656;2022-12-07T12:43:46;14.30;;;5.35;;
26963;SDS011;14521;48.148;-1.656;2022-12-07T12:58:32;18.25;;;5.30;;
26963;SDS011;14521;48.148;-1.656;2022-12-07T13:05:45;13.82;;;4.80;;
26963;SDS011;14521;48.148;-1.656;2022-12-07T13:09:15;13.02;;;5.53;;
26963;SDS011;14521;48.148;-1.656;2022-12-07T13:12:43;13.60;;;4.53;;
26963;SDS011;14521;48.148;-1.656;2022-12-07T13:23:05;8.55;;;4.57;;
26963;SDS011;14521;48.148;-1.656;2022-12-07T13:26:39;7.28;;;4.65;;
26963;SDS011;14521;48.148;-1.656;2022-12-07T13:30:15;9.07;;;4.40;;
26963;SDS011;14521;48.148;-1.656;2022-12-07T13:33:39;9.70;;;4.40;;
26963;SDS011;14521;48.148;-1.656;2022-12-07T13:37:15;7.22;;;4.68;;
26963;SDS011;14521;48.148;-1.656;2022-12-07T13:44:44;17.35;;;9.68;;
26963;SDS011;14521;48.148;-1.656;2022-12-07T13:48:06;14.15;;;10.45;;
26963;SDS011;14521;48.148;-1.656;2022-12-07T13:51:34;11.55;;;9.20;;
26963;SDS011;14521;48.148;-1.656;2022-12-07T13:58:21;10.05;;;7.20;;
26963;SDS011;14521;48.148;-1.656;2022-12-07T14:01:45;8.15;;;7.00;;
26963;SDS011;14521;48.148;-1.656;2022-12-07T14:11:58;5.80;;;5.03;;
26963;SDS011;14521;48.148;-1.656;2022-12-07T14:15:24;5.88;;;4.68;;
26963;SDS011;14521;48.148;-1.656;2022-12-07T14:18:52;7.43;;;5.15;;
26963;SDS011;14521;48.148;-1.656;2022-12-07T14:26:19;4.25;;;3.92;;
26963;SDS011;14521;48.148;-1.656;2022-12-07T14:29:42;4.53;;;4.13;;
26963;SDS011;14521;48.148;-1.656;2022-12-07T14:33:04;4.55;;;3.80;;
26963;SDS011;14521;48.148;-1.656;2022-12-07T14:36:29;4.80;;;4.40;;
26963;SDS011;14521;48.148;-1.656;2022-12-07T14:39:52;5.03;;;3.67;;
26963;SDS011;14521;48.148;-1.656;2022-12-07T14:43:14;9.25;;;3.67;;
26963;SDS011;14521;48.148;-1.656;2022-12-07T14:46:38;5.95;;;3.83;;
26963;SDS011;14521;48.148;-1.656;2022-12-07T14:50:00;5.07;;;3.67;;
26963;SDS011;14521;48.148;-1.656;2022-12-07T14:53:31;4.50;;;4.10;;
26963;SDS011;14521;48.148;-1.656;2022-12-07T14:56:58;5.22;;;3.88;;
26963;SDS011;14521;48.148;-1.656;2022-12-07T15:00:21;4.03;;;3.60;;
26963;SDS011;14521;48.148;-1.656;2022-12-07T15:03:45;4.15;;;3.72;;
26963;SDS011;14521;48.148;-1.656;2022-12-07T15:07:15;3.17;;;2.97;;
26963;SDS011;14521;48.148;-1.656;2022-12-07T15:10:41;3.78;;;3.30;;
26963;SDS011;14521;48.148;-1.656;2022-12-07T15:14:03;3.80;;;3.50;;
26963;SDS011;14521;48.148;-1.656;2022-12-07T15:17:35;4.05;;;3.30;;
26963;SDS011;14521;48.148;-1.656;2022-12-07T15:20:57;3.50;;;3.08;;
26963;SDS011;14521;48.148;-1.656;2022-12-07T15:24:19;3.65;;;3.30;;
26963;SDS011;14521;48.148;-1.656;2022-12-07T15:27:43;3.85;;;3.45;;
26963;SDS011;14521;48.148;-1.656;2022-12-07T15:31:12;3.70;;;3.35;;
26963;SDS011;14521;48.148;-1.656;2022-12-07T15:34:55;4.47;;;3.90;;
26963;SDS011;14521;48.148;-1.656;2022-12-07T15:38:17;4.40;;;4.00;;
26963;SDS011;14521;48.148;-1.656;2022-12-07T15:41:59;4.38;;;2.90;;
26963;SDS011;14521;48.148;-1.656;2022-12-07T15:45:22;4.28;;;3.83;;
26963;SDS011;14521;48.148;-1.656;2022-12-07T15:48:45;3.40;;;3.10;;
26963;SDS011;14521;48.148;-1.656;2022-12-07T15:52:07;5.15;;;3.15;;
26963;SDS011;14521;48.148;-1.656;2022-12-07T15:55:30;3.75;;;3.45;;
26963;SDS011;14521;48.148;-1.656;2022-12-07T15:58:52;8.63;;;4.20;;
26963;SDS011;14521;48.148;-1.656;2022-12-07T16:02:14;4.07;;;3.40;;
26963;SDS011;14521;48.148;-1.656;2022-12-07T16:05:37;4.22;;;3.80;;
26963;SDS011;14521;48.148;-1.656;2022-12-07T16:08:59;4.15;;;3.85;;
26963;SDS011;14521;48.148;-1.656;2022-12-07T16:12:22;5.22;;;4.18;;
26963;SDS011;14521;48.148;-1.656;2022-12-07T16:15:44;4.75;;;4.25;;
26963;SDS011;14521;48.148;-1.656;2022-12-07T16:19:07;4.35;;;4.00;;
26963;SDS011;14521;48.148;-1.656;2022-12-07T16:22:30;5.80;;;4.72;;
26963;SDS011;14521;48.148;-1.656;2022-12-07T16:25:52;6.03;;;4.28;;
26963;SDS011;14521;48.148;-1.656;2022-12-07T16:29:15;6.15;;;4.07;;
26963;SDS011;14521;48.148;-1.656;2022-12-07T16:32:38;5.25;;;4.22;;
26963;SDS011;14521;48.148;-1.656;2022-12-07T16:36:01;4.82;;;3.70;;
26963;SDS011;14521;48.148;-1.656;2022-12-07T16:39:24;4.95;;;4.47;;
26963;SDS011;14521;48.148;-1.656;2022-12-07T16:42:47;4.43;;;3.97;;
26963;SDS011;14521;48.148;-1.656;2022-12-07T16:46:09;5.25;;;4.75;;
26963;SDS011;14521;48.148;-1.656;2022-12-07T16:49:32;5.00;;;4.45;;
26963;SDS011;14521;48.148;-1.656;2022-12-07T16:52:54;4.97;;;4.45;;
26963;SDS011;14521;48.148;-1.656;2022-12-07T16:56:16;5.57;;;4.18;;
26963;SDS011;14521;48.148;-1.656;2022-12-07T16:59:39;6.57;;;4.70;;
26963;SDS011;14521;48.148;-1.656;2022-12-07T17:03:02;5.45;;;4.40;;
26963;SDS011;14521;48.148;-1.656;2022-12-07T17:06:26;4.60;;;4.20;;
26963;SDS011;14521;48.148;-1.656;2022-12-07T17:09:49;4.90;;;4.40;;
26963;SDS011;14521;48.148;-1.656;2022-12-07T17:13:12;5.13;;;4.63;;
26963;SDS011;14521;48.148;-1.656;2022-12-07T17:16:52;4.45;;;4.05;;
26963;SDS011;14521;48.148;-1.656;2022-12-07T17:20:15;6.22;;;3.72;;
26963;SDS011;14521;48.148;-1.656;2022-12-07T17:23:38;6.38;;;3.95;;
26963;SDS011;14521;48.148;-1.656;2022-12-07T17:27:00;5.40;;;4.00;;
26963;SDS011;14521;48.148;-1.656;2022-12-07T17:30:22;5.47;;;4.00;;
26963;SDS011;14521;48.148;-1.656;2022-12-07T17:33:45;4.00;;;3.70;;
26963;SDS011;14521;48.148;-1.656;2022-12-07T17:37:08;5.07;;;3.88;;
26963;SDS011;14521;48.148;-1.656;2022-12-07T17:40:30;9.35;;;3.80;;
26963;SDS011;14521;48.148;-1.656;2022-12-07T17:43:52;5.05;;;4.60;;
26963;SDS011;14521;48.148;-1.656;2022-12-07T17:47:14;5.90;;;4.72;;
26963;SDS011;14521;48.148;-1.656;2022-12-07T17:50:39;8.20;;;4.23;;
26963;SDS011;14521;48.148;-1.656;2022-12-07T17:54:20;5.22;;;4.13;;
26963;SDS011;14521;48.148;-1.656;2022-12-07T17:57:42;5.43;;;4.50;;
26963;SDS011;14521;48.148;-1.656;2022-12-07T18:01:07;5.72;;;4.25;;
26963;SDS011;14521;48.148;-1.656;2022-12-07T18:04:31;27.70;;;4.65;;
26963;SDS011;14521;48.148;-1.656;2022-12-07T18:07:53;8.13;;;4.07;;
26963;SDS011;14521;48.148;-1.656;2022-12-07T18:11:16;7.97;;;4.20;;
26963;SDS011;14521;48.148;-1.656;2022-12-07T18:14:38;9.30;;;3.95;;
26963;SDS011;14521;48.148;-1.656;2022-12-07T18:18:01;4.38;;;4.05;;
26963;SDS011;14521;48.148;-1.656;2022-12-07T18:21:24;4.93;;;3.97;;
26963;SDS011;14521;48.148;-1.656;2022-12-07T18:24:48;7.43;;;3.67;;
26963;SDS011;14521;48.148;-1.656;2022-12-07T18:28:10;7.00;;;3.88;;
26963;SDS011;14521;48.148;-1.656;2022-12-07T18:31:33;6.95;;;3.50;;
26963;SDS011;14521;48.148;-1.656;2022-12-07T18:34:56;7.32;;;4.10;;
26963;SDS011;14521;48.148;-1.656;2022-12-07T18:38:18;9.68;;;3.60;;
26963;SDS011;14521;48.148;-1.656;2022-12-07T18:41:41;4.00;;;3.25;;
26963;SDS011;14521;48.148;-1.656;2022-12-07T18:45:04;6.43;;;3.65;;
26963;SDS011;14521;48.148;-1.656;2022-12-07T18:48:28;9.25;;;3.33;;
26963;SDS011;14521;48.148;-1.656;2022-12-07T18:51:50;7.13;;;3.00;;
26963;SDS011;14521;48.148;-1.656;2022-12-07T18:55:13;4.50;;;3.58;;
26963;SDS011;14521;48.148;-1.656;2022-12-07T18:58:35;4.03;;;3.60;;
26963;SDS011;14521;48.148;-1.656;2022-12-07T19:01:57;3.75;;;3.42;;
26963;SDS011;14521;48.148;-1.656;2022-12-07T19:05:20;6.80;;;3.85;;
26963;SDS011;14521;48.148;-1.656;2022-12-07T19:08:44;3.22;;;2.95;;
26963;SDS011;14521;48.148;-1.656;2022-12-07T19:12:08;3.78;;;3.45;;
26963;SDS011;14521;48.148;-1.656;2022-12-07T19:15:32;4.97;;;3.67;;
26963;SDS011;14521;48.148;-1.656;2022-12-07T19:18:55;12.70;;;6.72;;
26963;SDS011;14521;48.148;-1.656;2022-12-07T19:22:18;11.02;;;5.82;;
26963;SDS011;14521;48.148;-1.656;2022-12-07T19:25:42;27.15;;;8.15;;
26963;SDS011;14521;48.148;-1.656;2022-12-07T19:29:04;80.68;;;37.53;;
26963;SDS011;14521;48.148;-1.656;2022-12-07T19:32:26;36.20;;;19.90;;
26963;SDS011;14521;48.148;-1.656;2022-12-07T19:35:50;20.35;;;11.85;;
26963;SDS011;14521;48.148;-1.656;2022-12-07T19:39:12;22.92;;;11.18;;
26963;SDS011;14521;48.148;-1.656;2022-12-07T19:42:36;18.33;;;8.45;;
26963;SDS011;14521;48.148;-1.656;2022-12-07T19:46:03;18.48;;;8.00;;
26963;SDS011;14521;48.148;-1.656;2022-12-07T19:49:30;13.57;;;7.03;;
26963;SDS011;14521;48.148;-1.656;2022-12-07T19:52:54;24.23;;;8.80;;
26963;SDS011;14521;48.148;-1.656;2022-12-07T19:56:17;17.10;;;7.80;;
26963;SDS011;14521;48.148;-1.656;2022-12-07T19:59:41;12.13;;;7.28;;
26963;SDS011;14521;48.148;-1.656;2022-12-07T20:03:03;11.82;;;7.40;;
26963;SDS011;14521;48.148;-1.656;2022-12-07T20:06:25;15.57;;;7.93;;
26963;SDS011;14521;48.148;-1.656;2022-12-07T20:09:48;12.32;;;6.20;;
26963;SDS011;14521;48.148;-1.656;2022-12-07T20:13:10;11.98;;;6.30;;
26963;SDS011;14521;48.148;-1.656;2022-12-07T20:16:52;16.88;;;6.30;;
26963;SDS011;14521;48.148;-1.656;2022-12-07T20:20:15;13.20;;;7.28;;
26963;SDS011;14521;48.148;-1.656;2022-12-07T20:23:37;10.07;;;7.03;;
26963;SDS011;14521;48.148;-1.656;2022-12-07T20:26:59;11.45;;;6.72;;
26963;SDS011;14521;48.148;-1.656;2022-12-07T20:30:22;9.27;;;6.97;;
26963;SDS011;14521;48.148;-1.656;2022-12-07T20:33:45;12.25;;;7.13;;
26963;SDS011;14521;48.148;-1.656;2022-12-07T20:37:07;9.63;;;6.15;;
26963;SDS011;14521;48.148;-1.656;2022-12-07T20:40:30;10.35;;;6.65;;
26963;SDS011;14521;48.148;-1.656;2022-12-07T20:43:52;11.30;;;6.75;;
26963;SDS011;14521;48.148;-1.656;2022-12-07T20:47:14;9.25;;;6.45;;
26963;SDS011;14521;48.148;-1.656;2022-12-07T20:50:37;10.43;;;6.80;;
26963;SDS011;14521;48.148;-1.656;2022-12-07T20:54:03;9.07;;;6.70;;
26963;SDS011;14521;48.148;-1.656;2022-12-07T20:57:25;8.35;;;6.30;;
26963;SDS011;14521;48.148;-1.656;2022-12-07T21:00:48;8.90;;;5.75;;
26963;SDS011;14521;48.148;-1.656;2022-12-07T21:04:10;9.75;;;6.55;;
26963;SDS011;14521;48.148;-1.656;2022-12-07T21:07:35;8.70;;;5.97;;
26963;SDS011;14521;48.148;-1.656;2022-12-07T21:10:57;7.38;;;5.82;;
26963;SDS011;14521;48.148;-1.656;2022-12-07T21:14:20;8.93;;;6.40;;
26963;SDS011;14521;48.148;-1.656;2022-12-07T21:17:42;11.00;;;6.57;;
26963;SDS011;14521;48.148;-1.656;2022-12-07T21:21:05;9.93;;;6.50;;
26963;SDS011;14521;48.148;-1.656;2022-12-07T21:24:28;7.55;;;6.38;;
26963;SDS011;14521;48.148;-1.656;2022-12-07T21:27:51;8.60;;;6.57;;
26963;SDS011;14521;48.148;-1.656;2022-12-07T21:31:13;8.00;;;6.50;;
26963;SDS011;14521;48.148;-1.656;2022-12-07T21:34:36;11.05;;;7.40;;
26963;SDS011;14521;48.148;-1.656;2022-12-07T21:37:58;11.25;;;6.97;;
26963;SDS011;14521;48.148;-1.656;2022-12-07T21:41:25;11.40;;;7.20;;
26963;SDS011;14521;48.148;-1.656;2022-12-07T21:44:49;11.98;;;6.93;;
26963;SDS011;14521;48.148;-1.656;2022-12-07T21:48:12;13.00;;;7.68;;
26963;SDS011;14521;48.148;-1.656;2022-12-07T21:51:34;11.07;;;7.45;;
26963;SDS011;14521;48.148;-1.656;2022-12-07T21:54:57;16.35;;;8.05;;
26963;SDS011;14521;48.148;-1.656;2022-12-07T21:58:19;10.93;;;7.72;;
26963;SDS011;14521;48.148;-1.656;2022-12-07T22:01:42;10.07;;;7.57;;
26963;SDS011;14521;48.148;-1.656;2022-12-07T22:05:08;9.98;;;7.82;;
26963;SDS011;14521;48.148;-1.656;2022-12-07T22:08:30;10.48;;;7.05;;
26963;SDS011;14521;48.148;-1.656;2022-12-07T22:11:52;10.40;;;8.40;;
26963;SDS011;14521;48.148;-1.656;2022-12-07T22:15:14;10.75;;;7.28;;
26963;SDS011;14521;48.148;-1.656;2022-12-07T22:18:37;9.65;;;7.38;;
26963;SDS011;14521;48.148;-1.656;2022-12-07T22:21:59;10.50;;;9.05;;
26963;SDS011;14521;48.148;-1.656;2022-12-07T22:25:21;11.32;;;7.88;;
26963;SDS011;14521;48.148;-1.656;2022-12-07T22:28:44;12.60;;;8.73;;
26963;SDS011;14521;48.148;-1.656;2022-12-07T22:32:07;12.60;;;8.23;;
26963;SDS011;14521;48.148;-1.656;2022-12-07T22:35:53;13.73;;;8.13;;